Terminal Aerodrome Forecast
Issued by NWS Cleveland, OH

Home | Current Version | Previous Version | Graphics & Text | Print | Product List | Glossary On
Versions: 1 2 3 4 5 6 7 8 9 10 11 12 13 14 15 16 17 18 19 20
000
FTUS41 KCLE 042300
TAFYNG
TAF
KYNG 042326Z 0500/0524 23012G18KT P6SM -SHRA OVC045
      TEMPO 0500/0501 5SM -SHRA BR OVC045
     FM050100 25008KT P6SM SCT045 BKN060
     FM050500 VRB04KT P6SM SCT025 OVC045
     FM051600 VRB04KT 3SM -SHRA BR OVC020=

USA.gov is the U.S. government's official web portal to all federal, state and local government web resources and services.